createdAt,value
2018-07-05T00:00:42.599Z,7.83
2018-07-05T00:03:23.323Z,7.57
2018-07-05T00:06:03.798Z,6.83
2018-07-05T00:08:44.350Z,7.20
2018-07-05T00:11:25.758Z,7.97
2018-07-05T00:14:06.652Z,8.25
2018-07-05T00:16:47.080Z,8.20
2018-07-05T00:19:27.574Z,8.47
2018-07-05T00:22:10.710Z,8.83
2018-07-05T00:24:51.780Z,8.77
2018-07-05T00:27:32.413Z,8.63
2018-07-05T00:30:13.018Z,8.70
2018-07-05T00:32:53.660Z,9.00
2018-07-05T00:35:34.380Z,8.75
2018-07-05T00:38:14.972Z,9.30
2018-07-05T00:40:55.558Z,9.15
2018-07-05T00:43:36.783Z,9.20
2018-07-05T00:46:17.459Z,9.30
2018-07-05T00:48:58.188Z,9.33
2018-07-05T00:51:39.271Z,9.43
2018-07-05T00:54:20.443Z,9.73
2018-07-05T00:57:00.926Z,10.73
2018-07-05T00:59:41.566Z,10.57
2018-07-05T01:02:21.987Z,10.10
2018-07-05T01:05:02.573Z,10.37
2018-07-05T01:07:43.292Z,10.23
2018-07-05T01:10:23.905Z,11.37
2018-07-05T01:13:04.708Z,11.13
2018-07-05T01:15:47.829Z,12.20
2018-07-05T01:18:28.768Z,12.70
2018-07-05T01:21:09.582Z,13.17
2018-07-05T01:23:50.271Z,12.80
2018-07-05T01:26:30.726Z,12.93
2018-07-05T01:29:11.314Z,13.60
2018-07-05T01:31:45.762Z,13.93
2018-07-05T01:34:26.886Z,14.25
2018-07-05T01:37:07.895Z,14.43
2018-07-05T01:39:48.641Z,14.50
2018-07-05T01:42:29.341Z,14.50
2018-07-05T01:45:09.780Z,14.27
2018-07-05T01:47:50.548Z,14.23
2018-07-05T01:50:31.250Z,13.30
2018-07-05T01:53:12.900Z,12.97
2018-07-05T01:55:53.588Z,13.50
2018-07-05T01:58:34.782Z,14.63
2018-07-05T02:01:15.748Z,14.60
2018-07-05T02:03:56.710Z,13.80
2018-07-05T02:06:37.342Z,13.13
2018-07-05T02:09:17.966Z,14.33
2018-07-05T02:11:58.833Z,15.17
2018-07-05T02:14:39.598Z,14.63
2018-07-05T02:17:20.375Z,15.27
2018-07-05T02:20:01.138Z,13.90
2018-07-05T02:22:41.736Z,14.33
2018-07-05T02:25:22.126Z,14.90
2018-07-05T02:28:02.713Z,13.43
2018-07-05T02:30:43.229Z,14.60
2018-07-05T02:33:23.920Z,13.03
2018-07-05T02:36:04.342Z,13.97
2018-07-05T02:38:49.133Z,13.00
2018-07-05T02:41:30.534Z,14.80
2018-07-05T02:44:11.118Z,15.20
2018-07-05T02:46:51.882Z,14.33
2018-07-05T02:49:32.609Z,15.17
2018-07-05T02:52:13.359Z,14.87
2018-07-05T02:54:53.984Z,14.83
2018-07-05T02:57:34.545Z,14.47
2018-07-05T03:00:09.214Z,13.60
2018-07-05T03:02:43.790Z,13.93
2018-07-05T03:05:24.306Z,14.63
2018-07-05T03:08:05.258Z,14.93
2018-07-05T03:10:46.340Z,14.73
2018-07-05T03:13:26.931Z,15.63
2018-07-05T03:16:07.616Z,15.83
2018-07-05T03:18:48.185Z,15.50
2018-07-05T03:21:28.596Z,15.80
2018-07-05T03:24:09.425Z,16.43
2018-07-05T03:26:49.963Z,18.00
2018-07-05T03:29:30.580Z,15.70
2018-07-05T03:32:15.480Z,16.47
2018-07-05T03:34:57.093Z,15.27
2018-07-05T03:37:38.280Z,16.23
2018-07-05T03:40:19.121Z,17.80
2018-07-05T03:42:59.819Z,18.57
2018-07-05T03:45:40.619Z,17.73
2018-07-05T03:48:21.364Z,17.43
2018-07-05T03:51:01.989Z,16.17
2018-07-05T03:53:43.709Z,14.80
2018-07-05T03:56:24.695Z,15.33
2018-07-05T03:59:05.221Z,15.97
2018-07-05T04:01:46.134Z,14.97
2018-07-05T04:04:27.714Z,13.57
2018-07-05T04:07:08.607Z,14.65
2018-07-05T04:09:49.302Z,13.50
2018-07-05T04:12:30.350Z,13.33
2018-07-05T04:15:11.016Z,14.20
2018-07-05T04:17:51.622Z,13.40
2018-07-05T04:20:32.350Z,14.20
2018-07-05T04:23:12.974Z,15.90
2018-07-05T04:25:53.690Z,15.83
2018-07-05T04:28:34.650Z,14.63
2018-07-05T04:31:15.462Z,14.77
2018-07-05T04:33:56.187Z,15.75
2018-07-05T04:36:36.880Z,15.17
2018-07-05T04:39:17.644Z,14.47
2018-07-05T04:41:58.290Z,14.23
2018-07-05T04:44:38.639Z,13.27
2018-07-05T04:47:19.076Z,14.23
2018-07-05T04:50:00.146Z,15.50
2018-07-05T04:52:41.123Z,15.47
2018-07-05T04:55:21.762Z,14.87
2018-07-05T04:58:02.369Z,15.80
2018-07-05T05:00:43.124Z,15.23
2018-07-05T05:03:23.913Z,15.87
2018-07-05T05:06:05.355Z,16.37
2018-07-05T05:08:46.182Z,16.70
2018-07-05T05:11:26.891Z,17.33
2018-07-05T05:14:07.577Z,17.27
2018-07-05T05:16:48.523Z,16.67
2018-07-05T05:19:28.987Z,17.33
2018-07-05T05:22:09.783Z,17.27
2018-07-05T05:24:50.453Z,18.10
2018-07-05T05:27:31.075Z,17.87
2018-07-05T05:30:11.858Z,16.70
2018-07-05T05:32:52.664Z,16.13
2018-07-05T05:35:33.172Z,17.50
2018-07-05T05:38:13.700Z,17.23
2018-07-05T05:40:54.480Z,17.47
2018-07-05T05:43:34.936Z,17.43
2018-07-05T05:46:15.830Z,17.63
2018-07-05T05:48:56.568Z,18.77
2018-07-05T05:51:37.140Z,17.70
2018-07-05T05:54:17.904Z,17.93
2018-07-05T05:56:58.690Z,17.90
2018-07-05T05:59:40.127Z,17.60
2018-07-05T06:02:21.480Z,17.57
2018-07-05T06:05:02.154Z,16.50
2018-07-05T06:07:42.924Z,17.80
2018-07-05T06:10:24.229Z,16.50
2018-07-05T06:12:58.911Z,16.00
2018-07-05T06:15:39.638Z,15.90
2018-07-05T06:18:20.948Z,15.83
2018-07-05T06:21:01.699Z,14.77
2018-07-05T06:23:42.507Z,14.73
2018-07-05T06:26:23.271Z,15.10
2018-07-05T06:29:04.106Z,14.60
2018-07-05T06:31:44.561Z,15.63
2018-07-05T06:34:25.867Z,14.90
2018-07-05T06:37:07.315Z,14.73
2018-07-05T06:39:42.007Z,14.80
2018-07-05T06:42:22.851Z,13.25
2018-07-05T06:45:03.419Z,13.57
2018-07-05T06:47:44.012Z,14.30
2018-07-05T06:50:24.550Z,13.77
2018-07-05T06:53:05.363Z,12.70
2018-07-05T06:55:46.599Z,12.47
2018-07-05T06:58:23.025Z,11.37
2018-07-05T07:01:03.817Z,10.90
2018-07-05T07:03:38.939Z,10.60
2018-07-05T07:06:25.228Z,10.47
2018-07-05T07:09:05.981Z,10.20
2018-07-05T07:11:40.519Z,10.30
2018-07-05T07:14:20.999Z,9.70
2018-07-05T07:17:01.591Z,9.30
2018-07-05T07:19:42.447Z,9.27
2018-07-05T07:22:23.060Z,9.43
2018-07-05T07:25:03.855Z,9.03
2018-07-05T07:27:44.623Z,9.03
2018-07-05T07:30:25.237Z,6.30
2018-07-05T07:33:06.334Z,8.63
2018-07-05T07:35:47.000Z,8.27
2018-07-05T07:38:27.605Z,6.90
2018-07-05T07:41:08.289Z,6.40
2018-07-05T07:43:36.538Z,6.03
2018-07-05T07:46:05.036Z,6.20
2018-07-05T07:48:33.036Z,6.80
2018-07-05T07:51:01.703Z,6.50
2018-07-05T07:53:29.972Z,5.70
2018-07-05T07:55:58.859Z,5.23
2018-07-05T07:58:27.126Z,4.60
2018-07-05T08:00:55.425Z,3.90
2018-07-05T08:03:23.544Z,4.57
2018-07-05T08:05:51.907Z,3.70
2018-07-05T08:08:20.141Z,2.87
2018-07-05T08:10:48.338Z,3.50
2018-07-05T08:13:16.448Z,3.20
2018-07-05T08:15:44.600Z,4.00
2018-07-05T08:18:12.749Z,3.50
2018-07-05T08:20:41.140Z,3.70
2018-07-05T08:23:09.262Z,3.77
2018-07-05T08:25:37.704Z,3.60
2018-07-05T08:28:05.690Z,3.57
2018-07-05T08:30:33.754Z,3.03
2018-07-05T08:33:02.323Z,2.83
2018-07-05T08:35:30.343Z,2.30
2018-07-05T08:37:58.753Z,2.40
2018-07-05T08:40:26.898Z,2.60
2018-07-05T08:42:54.942Z,2.70
2018-07-05T08:45:23.310Z,2.00
2018-07-05T08:47:51.389Z,2.37
2018-07-05T08:50:19.502Z,2.20
2018-07-05T08:52:48.439Z,2.10
2018-07-05T08:55:16.593Z,2.00
2018-07-05T08:57:45.046Z,1.77
2018-07-05T09:00:13.852Z,2.10
2018-07-05T09:02:41.935Z,2.30
2018-07-05T09:05:10.229Z,2.10
2018-07-05T09:07:38.316Z,2.30
2018-07-05T09:10:06.384Z,2.20
2018-07-05T09:12:35.203Z,1.70
2018-07-05T09:15:04.187Z,1.67
2018-07-05T09:17:32.405Z,1.67
2018-07-05T09:20:00.568Z,1.60
2018-07-05T09:22:29.109Z,1.40
2018-07-05T09:24:57.270Z,1.70
2018-07-05T09:27:25.704Z,1.70
2018-07-05T09:29:53.927Z,1.60
2018-07-05T09:32:22.073Z,1.70
2018-07-05T09:34:51.013Z,1.50
2018-07-05T09:37:19.208Z,1.60
2018-07-05T09:39:47.491Z,1.77
2018-07-05T09:42:15.692Z,1.83
2018-07-05T09:44:44.577Z,1.70
2018-07-05T09:47:13.473Z,1.87
2018-07-05T09:49:41.933Z,2.07
2018-07-05T09:52:10.226Z,2.10
2018-07-05T09:54:38.739Z,2.27
2018-07-05T09:57:06.960Z,2.23
2018-07-05T09:59:35.192Z,2.20
2018-07-05T10:02:03.473Z,2.27
2018-07-05T10:04:31.664Z,2.37
2018-07-05T10:06:59.928Z,2.20
2018-07-05T10:09:28.264Z,2.07
2018-07-05T10:11:56.491Z,2.50
2018-07-05T10:14:24.946Z,2.20
2018-07-05T10:16:53.195Z,2.30
2018-07-05T10:19:21.326Z,2.13
2018-07-05T10:21:49.649Z,2.20
2018-07-05T10:24:17.770Z,2.43
2018-07-05T10:26:45.971Z,2.57
2018-07-05T10:29:27.169Z,2.20
2018-07-05T10:32:07.943Z,2.00
2018-07-05T10:34:36.223Z,2.20
2018-07-05T10:37:04.456Z,1.90
2018-07-05T10:39:33.369Z,1.87
2018-07-05T10:42:14.065Z,2.23
2018-07-05T10:44:55.193Z,1.83
2018-07-05T10:47:36.006Z,2.20
2018-07-05T10:50:16.619Z,1.80
2018-07-05T10:52:57.433Z,1.67
2018-07-05T10:55:38.013Z,1.73
2018-07-05T10:58:18.632Z,1.77
2018-07-05T11:00:59.270Z,1.80
2018-07-05T11:03:39.999Z,1.90
2018-07-05T11:06:14.547Z,2.33
2018-07-05T11:08:55.179Z,2.13
2018-07-05T11:11:36.701Z,2.07
2018-07-05T11:14:17.096Z,1.60
2018-07-05T11:16:57.676Z,2.00
2018-07-05T11:19:38.221Z,1.63
2018-07-05T11:22:18.707Z,2.00
2018-07-05T11:24:59.559Z,1.90
2018-07-05T11:27:40.855Z,1.70
2018-07-05T11:30:21.442Z,1.70
2018-07-05T11:33:02.025Z,2.20
2018-07-05T11:35:42.815Z,1.83
2018-07-05T11:38:23.646Z,2.00
2018-07-05T11:41:04.310Z,2.10
2018-07-05T11:43:44.869Z,1.90
2018-07-05T11:46:25.241Z,1.83
2018-07-05T11:49:06.397Z,2.03
2018-07-05T11:51:47.201Z,2.00
2018-07-05T11:54:28.396Z,1.90
2018-07-05T11:57:09.174Z,1.80
2018-07-05T11:59:50.604Z,1.80
2018-07-05T12:02:31.260Z,1.87
2018-07-05T12:05:12.552Z,1.77
2018-07-05T12:07:54.160Z,1.70
2018-07-05T12:10:34.806Z,1.70
2018-07-05T12:13:15.686Z,1.60
2018-07-05T12:15:56.259Z,1.50
2018-07-05T12:18:37.031Z,1.80
2018-07-05T12:21:17.753Z,2.00
2018-07-05T12:23:58.255Z,1.53
2018-07-05T12:26:39.738Z,1.70
2018-07-05T12:29:20.515Z,1.87
2018-07-05T12:32:01.112Z,1.83
2018-07-05T12:34:41.612Z,1.60
2018-07-05T12:37:22.115Z,2.00
2018-07-05T12:40:02.740Z,2.03
2018-07-05T12:42:43.190Z,1.90
2018-07-05T12:45:24.099Z,1.77
2018-07-05T12:48:05.311Z,1.80
2018-07-05T12:50:45.758Z,2.08
2018-07-05T12:53:26.398Z,2.05
2018-07-05T12:56:06.915Z,2.05
2018-07-05T12:58:47.327Z,2.10
2018-07-05T13:01:27.938Z,2.17
2018-07-05T13:04:08.847Z,1.92
2018-07-05T13:06:49.483Z,1.97
2018-07-05T13:09:29.929Z,2.10
2018-07-05T13:12:10.341Z,2.08
2018-07-05T13:14:51.045Z,1.90
2018-07-05T13:17:31.583Z,2.03
2018-07-05T13:20:12.221Z,2.15
2018-07-05T13:22:52.697Z,2.25
2018-07-05T13:25:33.121Z,1.80
2018-07-05T13:28:14.683Z,2.00
2018-07-05T13:30:55.423Z,2.20
2018-07-05T13:33:36.157Z,2.05
2018-07-05T13:36:16.744Z,2.50
2018-07-05T13:38:58.047Z,2.30
2018-07-05T13:41:39.021Z,2.52
2018-07-05T13:44:19.617Z,2.30
2018-07-05T13:47:00.619Z,2.30
2018-07-05T13:49:41.055Z,2.60
2018-07-05T13:52:21.659Z,2.43
2018-07-05T13:55:02.225Z,2.13
2018-07-05T13:57:43.513Z,2.57
2018-07-05T14:00:23.979Z,2.50
2018-07-05T14:03:04.658Z,2.80
2018-07-05T14:05:45.150Z,2.33
2018-07-05T14:08:25.782Z,2.30
2018-07-05T14:11:06.577Z,2.17
2018-07-05T14:13:47.240Z,2.27
2018-07-05T14:16:27.680Z,2.50
2018-07-05T14:19:09.453Z,2.17
2018-07-05T14:21:49.979Z,2.30
2018-07-05T14:24:30.908Z,2.30
2018-07-05T14:27:06.012Z,2.37
2018-07-05T14:29:46.438Z,2.77
2018-07-05T14:32:26.997Z,3.37
2018-07-05T14:35:08.370Z,2.70
2018-07-05T14:37:48.803Z,2.70
2018-07-05T14:40:30.274Z,2.70
2018-07-05T14:43:10.988Z,2.40
2018-07-05T14:45:51.519Z,2.60
2018-07-05T14:48:32.126Z,2.45
2018-07-05T14:51:12.572Z,2.52
2018-07-05T14:53:53.031Z,2.70
2018-07-05T14:56:33.605Z,2.60
2018-07-05T14:59:14.202Z,2.55
2018-07-05T15:01:54.813Z,2.50
2018-07-05T15:04:35.526Z,2.57
2018-07-05T15:07:16.036Z,2.53
2018-07-05T15:09:56.469Z,2.60
2018-07-05T15:12:36.979Z,2.60
2018-07-05T15:15:11.905Z,2.70
2018-07-05T15:17:46.312Z,2.37
2018-07-05T15:20:27.564Z,2.33
2018-07-05T15:23:08.899Z,2.60
2018-07-05T15:25:43.260Z,2.80
2018-07-05T15:28:24.956Z,2.20
2018-07-05T15:31:05.684Z,2.40
2018-07-05T15:33:46.259Z,2.53
2018-07-05T15:36:27.133Z,2.53
2018-07-05T15:39:08.213Z,2.67
2018-07-05T15:41:48.796Z,2.40
2018-07-05T15:44:29.378Z,2.70
2018-07-05T15:47:09.997Z,2.83
2018-07-05T15:49:50.723Z,2.20
2018-07-05T15:52:31.279Z,2.60
2018-07-05T15:55:11.884Z,2.30
2018-07-05T15:57:52.627Z,2.57
2018-07-05T16:00:32.982Z,2.60
2018-07-05T16:03:13.372Z,2.60
2018-07-05T16:05:54.442Z,2.40
2018-07-05T16:08:35.124Z,2.77
2018-07-05T16:11:15.563Z,2.30
2018-07-05T16:13:56.215Z,2.37
2018-07-05T16:16:36.765Z,2.50
2018-07-05T16:19:17.339Z,2.57
2018-07-05T16:21:51.766Z,2.47
2018-07-05T16:24:32.544Z,2.57
2018-07-05T16:27:12.998Z,2.30
2018-07-05T16:29:47.447Z,2.50
2018-07-05T16:32:27.915Z,2.73
2018-07-05T16:35:08.814Z,2.30
2018-07-05T16:37:50.202Z,2.30
2018-07-05T16:40:30.943Z,2.40
2018-07-05T16:43:12.439Z,2.40
2018-07-05T16:45:53.090Z,2.27
2018-07-05T16:48:33.655Z,1.93
2018-07-05T16:51:14.263Z,2.53
2018-07-05T16:53:54.711Z,2.60
2018-07-05T16:56:35.995Z,2.60
2018-07-05T16:59:16.582Z,2.43
2018-07-05T17:01:57.412Z,2.33
2018-07-05T17:04:38.022Z,2.20
2018-07-05T17:07:18.553Z,2.20
2018-07-05T17:09:59.135Z,2.50
2018-07-05T17:12:40.671Z,2.13
2018-07-05T17:15:21.291Z,2.37
2018-07-05T17:18:01.844Z,2.60
2018-07-05T17:20:42.703Z,2.40
2018-07-05T17:23:23.513Z,2.80
2018-07-05T17:26:04.006Z,2.20
2018-07-05T17:28:44.508Z,2.70
2018-07-05T17:31:25.226Z,2.53
2018-07-05T17:34:05.705Z,2.20
2018-07-05T17:36:46.228Z,2.10
2018-07-05T17:39:27.381Z,2.10
2018-07-05T17:42:08.472Z,2.23
2018-07-05T17:44:49.617Z,2.20
2018-07-05T17:47:30.323Z,2.00
2018-07-05T17:50:11.130Z,1.67
2018-07-05T17:52:51.766Z,1.80
2018-07-05T17:55:32.487Z,1.90
2018-07-05T17:58:13.322Z,1.70
2018-07-05T18:00:54.004Z,1.60
2018-07-05T18:03:34.864Z,1.70
2018-07-05T18:06:09.508Z,1.40
2018-07-05T18:08:50.230Z,1.63
2018-07-05T18:11:30.884Z,1.60
2018-07-05T18:14:11.608Z,1.83
2018-07-05T18:16:52.796Z,1.70
2018-07-05T18:19:33.331Z,1.33
2018-07-05T18:22:13.772Z,1.20
2018-07-05T18:24:54.296Z,1.40
2018-07-05T18:27:34.943Z,1.33
2018-07-05T18:30:15.354Z,1.30
2018-07-05T18:32:56.002Z,1.40
2018-07-05T18:35:36.526Z,1.30
2018-07-05T18:38:16.901Z,1.20
2018-07-05T18:40:57.659Z,1.33
2018-07-05T18:43:38.529Z,1.30
2018-07-05T18:46:19.092Z,1.20
2018-07-05T18:48:59.686Z,1.20
2018-07-05T18:51:40.889Z,1.37
2018-07-05T18:54:22.265Z,1.17
2018-07-05T18:57:02.673Z,1.10
2018-07-05T18:59:42.995Z,1.30
2018-07-05T19:02:25.215Z,1.00
2018-07-05T19:05:07.083Z,1.00
2018-07-05T19:07:47.948Z,1.10
2018-07-05T19:10:28.867Z,1.33
2018-07-05T19:13:03.852Z,1.80
2018-07-05T19:15:44.785Z,1.50
2018-07-05T19:18:25.668Z,1.30
2018-07-05T19:21:06.823Z,1.13
2018-07-05T19:23:47.377Z,1.30
2018-07-05T19:26:21.943Z,1.33
2018-07-05T19:29:02.895Z,1.30
2018-07-05T19:31:37.420Z,1.23
2018-07-05T19:34:18.037Z,1.20
2018-07-05T19:36:59.616Z,1.30
2018-07-05T19:39:40.757Z,1.60
2018-07-05T19:42:21.789Z,1.40
2018-07-05T19:45:02.449Z,1.60
2018-07-05T19:47:42.988Z,1.70
2018-07-05T19:50:23.569Z,1.63
2018-07-05T19:53:04.085Z,1.87
2018-07-05T19:55:44.707Z,1.87
2018-07-05T19:58:25.491Z,2.20
2018-07-05T20:01:06.276Z,2.20
2018-07-05T20:03:46.809Z,2.30
2018-07-05T20:06:27.607Z,1.93
2018-07-05T20:09:08.884Z,2.20
2018-07-05T20:11:48.910Z,1.80
2018-07-05T20:14:29.625Z,2.00
2018-07-05T20:17:10.632Z,2.50
2018-07-05T20:19:51.406Z,2.47
2018-07-05T20:22:32.141Z,3.10
2018-07-05T20:26:41.993Z,2.87
